Main page
METAR-TAF:

METAR-TAF

Airports :

DuPage Airport

West Chicago, Illinois, United States

latitude: 41-53-47N, longitude: 088-15-04W, elevation: 758 ft

Current weather observation

The report was made 27 minutes ago, at 22:52 UTC
Wind 14 mph from the North/Northwest
Temperature 75°F
Humidity 47%
Pressure 30.02 in. Hg
Visibility: 10 miles
Clear sky

METAR: KDPA 172252Z 34012KT 10SM CLR 24/12 A3002 RMK AO2 SLP160 T02390117

Time: 18:19 (23:19 UTC)

Forecast

The report was made 2 hours and 19 minutes ago, at 21:00 UTC
Forecast valid from 17 at 21 UTC to 18 at 18 UTC
Wind 14 mph from the Northwest
Visibility: 6 miles
Scattered clouds at a height of 6000 ft
From 18 at 1400 UTC
Wind 9 mph from the Northeast
Visibility: 6 miles
Scattered clouds at a height of 3000 ft

TAF: KDPA 172100Z 1721/1818 32012KT P6SM SCT060 FM181400 04008KT P6SM SCT030

Weather observations and forecasts of more than 4000 airports (METAR and TAF reports).

The available stations are represented by yellow and red dots on the map.

Hover mouse over dot to see the name of the station.

Then click to see weather observations and forecasts.

To change the map : click on the green buttons with a black cross to zoom in, on the green button with a dash to zoom out, or on the green arrows for adjacent maps.


METAR-TAF: